Time;durP1;ratioP1;P1;durP2;ratioP2;P2;SDS_P1;SDS_P2;PMS_P1;PMS_P2;Temp;Humidity;BMP_temperature;BMP_pressure;BME280_temperature;BME280_humidity;BME280_pressure;Samples;Min_cycle;Max_cycle;Signal;HPM_P1;HPM_P2
2024/04/24 07:06:49;;;;;;;;;;;;;;;;;;11296682;26;19991;-88
2024/04/24 07:12:16;;;;;;;2.42;1.30;;;;;;;;;;11298526;26;19924;-85
2024/04/24 07:17:20;;;;;;;3.95;1.60;;;;;;;;;;11307076;26;20010;-84
2024/04/24 07:22:35;;;;;;;2.67;1.23;;;;;;;;;;11304212;26;20005;-84
2024/04/24 07:33:42;;;;;;;5.88;2.70;;;;;;;;;;11308961;26;19995;-84
2024/04/24 07:38:43;;;;;;;3.55;1.33;;;;;;;;;;11277915;26;19995;-84
2024/04/24 07:43:44;;;;;;;;;;;;;;;;;;11324460;26;20003;-83
2024/04/24 07:48:45;;;;;;;3.85;1.50;;;;;;;;;;11320898;26;19936;-86
2024/04/24 07:53:46;;;;;;;5.22;3.22;;;;;;;;;;11279071;26;19991;-85
2024/04/24 07:58:47;;;;;;;3.35;1.70;;;;;;;;;;11272867;26;20006;-85
2024/04/24 08:03:49;;;;;;;3.28;1.55;;;;;;;;;;11272364;26;19998;-85
2024/04/24 08:08:50;;;;;;;3.03;1.40;;;;;;;;;;11280788;26;20007;-85
2024/04/24 08:13:51;;;;;;;4.82;1.90;;;;;;;;;;11312613;26;19995;-86
2024/04/24 08:18:52;;;;;;;4.55;1.55;;;;;;;;;;11269876;26;20003;-86
2024/04/24 08:23:53;;;;;;;;;;;;;;;;;;11270298;26;20031;-84
2024/04/24 08:28:54;;;;;;;5.38;3.78;;;;;;;;;;11272506;26;19925;-84
2024/04/24 08:33:56;;;;;;;4.85;1.65;;;;;;;;;;11301739;26;19995;-85
2024/04/24 08:38:58;;;;;;;5.55;2.10;;;;;;;;;;11266221;26;19994;-84
2024/04/24 08:44:00;;;;;;;4.53;1.33;;;;;;;;;;11299789;26;20022;-83
2024/04/24 08:49:06;;;;;;;3.58;1.40;;;;;;;;;;11374171;21;20019;-82
2024/04/24 08:54:18;;;;;;;6.70;4.32;;;;;;;;;;11491715;25;20064;-84
2024/04/24 08:59:21;;;;;;;3.85;1.55;;;;;;;;;;11559676;25;20019;-84
2024/04/24 09:04:23;;;;;;;2.85;1.10;;;;;;;;;;11600423;25;20002;-84
2024/04/24 09:09:25;;;;;;;3.08;1.05;;;;;;;;;;11568401;25;20325;-83
2024/04/24 09:14:27;;;;;;;2.25;0.90;;;;;;;;;;11567175;25;19992;-82
2024/04/24 09:19:28;;;;;;;3.63;1.23;;;;;;;;;;11607796;25;19995;-83
2024/04/24 09:24:29;;;;;;;3.63;1.17;;;;;;;;;;11605396;25;20010;-82
2024/04/24 09:29:30;;;;;;;5.68;2.45;;;;;;;;;;11607860;25;20007;-82
2024/04/24 09:34:31;;;;;;;4.43;1.40;;;;;;;;;;11611687;25;19992;-80
2024/04/24 09:39:32;;;;;;;3.80;1.77;;;;;;;;;;11636530;25;20032;-83
2024/04/24 09:44:34;;;;;;;6.85;3.33;;;;;;;;;;11601789;25;19991;-84
2024/04/24 09:49:37;;;;;;;4.22;1.85;;;;;;;;;;11634978;25;20130;-84
2024/04/24 09:54:42;;;;;;;4.70;1.95;;;;;;;;;;11621093;25;20011;-84
2024/04/24 09:59:49;;;;;;;4.10;1.40;;;;;;;;;;11605968;25;19992;-86
2024/04/24 10:04:55;;;;;;;4.80;1.38;;;;;;;;;;11570473;25;20356;-82
2024/04/24 10:09:57;;;;;;;6.53;2.63;;;;;;;;;;11568527;25;20004;-83
2024/04/24 10:15:05;;;;;;;4.88;2.15;;;;;;;;;;11602132;25;20007;-82
2024/04/24 10:20:07;;;;;;;4.35;1.70;;;;;;;;;;11602948;25;19999;-82
2024/04/24 10:25:12;;;;;;;2.92;1.30;;;;;;;;;;11571056;25;20003;-82
2024/04/24 10:30:14;;;;;;;3.22;1.60;;;;;;;;;;11579228;25;19992;-82
2024/04/24 10:35:15;;;;;;;2.25;1.20;;;;;;;;;;11576312;25;20097;-81
2024/04/24 10:40:17;;;;;;;4.00;1.35;;;;;;;;;;11578538;25;19988;-81
2024/04/24 10:45:19;;;;;;;6.50;2.70;;;;;;;;;;11578223;25;20006;-82
2024/04/24 10:50:34;;;;;;;6.68;1.92;;;;;;;;;;11578090;25;19996;-82
2024/04/24 10:55:35;;;;;;;2.35;1.27;;;;;;;;;;11576178;25;20021;-84
2024/04/24 11:00:47;;;;;;;2.80;1.40;;;;;;;;;;11612616;25;20002;-83
2024/04/24 11:06:12;;;;;;;1.95;1.15;;;;;;;;;;11576958;25;20029;-81
2024/04/24 11:11:20;;;;;;;3.05;1.13;;;;;;;;;;11573595;25;20006;-81
2024/04/24 11:16:21;;;;;;;3.70;1.48;;;;;;;;;;11574244;25;20037;-81
2024/04/24 11:21:25;;;;;;;;;;;;;;;;;;11604195;25;20020;-82
2024/04/24 11:26:30;;;;;;;4.13;1.20;;;;;;;;;;11607753;25;19953;-81
2024/04/24 11:31:45;;;;;;;3.80;1.30;;;;;;;;;;11572704;25;20088;-86
2024/04/24 11:36:46;;;;;;;2.67;1.70;;;;;;;;;;11589908;25;19988;-81
2024/04/24 11:41:49;;;;;;;2.67;1.00;;;;;;;;;;11611301;25;20330;-83
2024/04/24 11:46:50;;;;;;;2.90;1.50;;;;;;;;;;11628830;25;19987;-83
2024/04/24 11:51:53;;;;;;;2.65;1.30;;;;;;;;;;11596481;25;19988;-84
2024/04/24 11:56:54;;;;;;;2.17;1.00;;;;;;;;;;11613145;25;20003;-82
2024/04/24 12:01:54;;;;;;;;;;;;;;;;;;11609675;25;20444;-81
2024/04/24 12:06:56;;;;;;;2.13;0.80;;;;;;;;;;11613008;25;19923;-82
2024/04/24 12:11:57;;;;;;;1.95;1.30;;;;;;;;;;11577374;25;19992;-83
2024/04/24 12:16:58;;;;;;;1.40;0.60;;;;;;;;;;11606404;25;20063;-85
2024/04/24 12:22:00;;;;;;;1.15;0.90;;;;;;;;;;11605795;25;19992;-83
2024/04/24 12:27:02;;;;;;;2.28;1.00;;;;;;;;;;11571648;25;20036;-84
2024/04/24 12:32:04;;;;;;;2.20;1.10;;;;;;;;;;11572011;25;19996;-82
2024/04/24 12:37:05;;;;;;;1.63;0.70;;;;;;;;;;11601175;25;20036;-82
2024/04/24 12:42:06;;;;;;;1.83;0.80;;;;;;;;;;11575645;25;19984;-83
2024/04/24 12:47:09;;;;;;;2.78;0.82;;;;;;;;;;11576545;25;19998;-83
2024/04/24 12:52:11;;;;;;;3.75;1.25;;;;;;;;;;11606376;25;20007;-83
2024/04/24 12:57:12;;;;;;;2.47;0.93;;;;;;;;;;11604805;25;19996;-83
2024/04/24 13:02:13;;;;;;;;;;;;;;;;;;11572711;25;19995;-83
2024/04/24 13:07:16;;;;;;;2.08;0.70;;;;;;;;;;11610565;25;19922;-84
2024/04/24 13:12:17;;;;;;;2.88;1.20;;;;;;;;;;11575113;25;20003;-85
2024/04/24 13:17:19;;;;;;;2.88;1.00;;;;;;;;;;11574419;25;20004;-84
2024/04/24 13:22:20;;;;;;;1.58;0.70;;;;;;;;;;11608792;25;20003;-84
2024/04/24 13:27:21;;;;;;;;;;;;;;;;;;11603750;25;19996;-83
2024/04/24 13:32:23;;;;;;;1.55;0.70;;;;;;;;;;11573302;25;20042;-83
2024/04/24 13:37:24;;;;;;;1.70;0.60;;;;;;;;;;11606711;25;20315;-84
2024/04/24 13:42:27;;;;;;;2.67;0.90;;;;;;;;;;11605271;25;20281;-85
2024/04/24 13:47:29;;;;;;;1.23;0.60;;;;;;;;;;11569663;25;20144;-83
2024/04/24 13:52:30;;;;;;;1.40;0.50;;;;;;;;;;11600711;25;20000;-83
2024/04/24 13:57:31;;;;;;;1.45;0.90;;;;;;;;;;11601054;25;19992;-84
2024/04/24 14:02:35;;;;;;;;;;;;;;;;;;11577327;25;20020;-85
2024/04/24 14:07:36;;;;;;;2.55;0.90;;;;;;;;;;11579332;25;19959;-82
2024/04/24 14:12:37;;;;;;;2.72;0.70;;;;;;;;;;11612543;25;19996;-81
2024/04/24 14:17:40;;;;;;;;;;;;;;;;;;11612970;25;19999;-82
2024/04/24 14:22:41;;;;;;;2.00;0.88;;;;;;;;;;11585412;25;20223;-83
2024/04/24 14:27:45;;;;;;;2.50;0.80;;;;;;;;;;11612639;25;19999;-81
2024/04/24 14:32:46;;;;;;;3.38;0.80;;;;;;;;;;11605346;25;19996;-81
2024/04/24 14:37:47;;;;;;;1.35;0.60;;;;;;;;;;11569088;25;20324;-81
2024/04/24 14:42:48;;;;;;;2.45;1.25;;;;;;;;;;11602800;25;20000;-81
2024/04/24 14:59:08;;;;;;;3.17;0.57;;;;;;;;;;11360785;26;20331;-84
2024/04/24 15:04:34;;;;;;;1.23;0.60;;;;;;;;;;11298472;26;20010;-82
2024/04/24 15:09:39;;;;;;;1.90;0.77;;;;;;;;;;11266622;26;19995;-82
2024/04/24 15:14:43;;;;;;;2.72;0.70;;;;;;;;;;11258583;26;19995;-82
2024/04/24 15:19:45;;;;;;;2.50;1.17;;;;;;;;;;11283652;26;20009;-83
2024/04/24 15:30:26;;;;;;;2.20;1.05;;;;;;;;;;11301120;26;19925;-83
2024/04/24 15:36:05;;;;;;;1.08;0.40;;;;;;;;;;11297963;26;20455;-82
2024/04/24 15:41:37;;;;;;;1.67;0.50;;;;;;;;;;11069904;26;20004;-82
2024/04/24 15:46:56;;;;;;;0.90;0.45;;;;;;;;;;11070612;26;20007;-81
2024/04/24 16:09:21;;;;;;;2.45;0.93;;;;;;;;;;11075323;26;19993;-84
2024/04/24 16:14:49;;;;;;;1.38;0.70;;;;;;;;;;11099503;26;20002;-84
2024/04/24 16:20:17;;;;;;;3.42;0.80;;;;;;;;;;11263703;26;20039;-83
2024/04/24 16:25:50;;;;;;;1.35;0.70;;;;;;;;;;11262947;26;20009;-84
2024/04/24 16:37:15;;;;;;;1.83;0.80;;;;;;;;;;11277077;26;19995;-85
2024/04/24 16:48:19;;;;;;;1.33;0.70;;;;;;;;;;11297269;26;20457;-84
2024/04/24 17:28:43;;;;;;;1.10;0.50;;;;;;;;;;11292812;26;19991;-85
2024/04/24 17:34:49;;;;;;;1.33;0.50;;;;;;;;;;11296735;26;20003;-84
2024/04/24 17:40:40;;;;;;;1.00;0.50;;;;;;;;;;11070477;26;20003;-85
2024/04/24 18:03:44;;;;;;;1.48;0.70;;;;;;;;;;11069345;26;19997;-85
2024/04/24 18:49:23;;;;;;;1.27;0.70;;;;;;;;;;11307558;26;19991;-86
